createdAt,value
2018-08-23T00:00:42.183Z,26.85
2018-08-23T00:01:45.601Z,26.87
2018-08-23T00:02:49.019Z,26.88
2018-08-23T00:03:52.767Z,26.86
2018-08-23T00:04:56.159Z,26.86
2018-08-23T00:05:59.626Z,26.88
2018-08-23T00:07:03.075Z,26.87
2018-08-23T00:08:10.442Z,26.88
2018-08-23T00:09:13.797Z,26.88
2018-08-23T00:10:17.229Z,26.88
2018-08-23T00:11:23.829Z,26.88
2018-08-23T00:12:32.439Z,26.88
2018-08-23T00:13:41.206Z,26.88
2018-08-23T00:14:44.595Z,26.86
2018-08-23T00:15:48.027Z,26.86
2018-08-23T00:16:51.548Z,26.87
2018-08-23T00:17:55.723Z,26.87
2018-08-23T00:18:59.132Z,26.85
2018-08-23T00:20:03.775Z,26.86
2018-08-23T00:21:12.263Z,26.86
2018-08-23T00:22:30.265Z,26.87
2018-08-23T00:23:33.675Z,26.86
2018-08-23T00:24:37.132Z,26.86
2018-08-23T00:25:40.489Z,26.86
2018-08-23T00:26:46.303Z,26.85
2018-08-23T00:27:49.714Z,26.85
2018-08-23T00:28:53.107Z,26.84
2018-08-23T00:29:56.473Z,26.85
2018-08-23T00:30:59.985Z,26.85
2018-08-23T00:32:05.657Z,26.85
2018-08-23T00:33:09.057Z,26.86
2018-08-23T00:34:12.548Z,26.85
2018-08-23T00:35:19.874Z,26.84
2018-08-23T00:36:23.277Z,26.85
2018-08-23T00:37:26.700Z,26.85
2018-08-23T00:38:30.098Z,26.84
2018-08-23T00:39:33.625Z,26.84
2018-08-23T00:40:44.908Z,26.84
2018-08-23T00:41:53.698Z,26.85
2018-08-23T00:43:02.492Z,26.86
2018-08-23T00:44:05.931Z,26.85
2018-08-23T00:45:15.593Z,26.85
2018-08-23T00:46:19.035Z,26.86
2018-08-23T00:47:24.999Z,26.86
2018-08-23T00:48:28.412Z,26.86
2018-08-23T00:49:33.456Z,26.85
2018-08-23T00:50:53.823Z,26.86
2018-08-23T00:51:57.197Z,26.86
2018-08-23T00:53:00.657Z,26.86
2018-08-23T00:54:04.193Z,26.86
2018-08-23T00:55:16.334Z,26.87
2018-08-23T00:56:22.808Z,26.86
2018-08-23T00:57:26.224Z,26.85
2018-08-23T00:58:29.577Z,26.84
2018-08-23T00:59:33.025Z,26.85
2018-08-23T01:00:36.416Z,26.84
2018-08-23T01:01:39.836Z,26.84
2018-08-23T01:02:43.273Z,26.84
2018-08-23T01:03:46.673Z,26.84
2018-08-23T01:04:50.062Z,26.85
2018-08-23T01:05:53.506Z,26.84
2018-08-23T01:06:56.892Z,26.84
2018-08-23T01:08:00.296Z,26.84
2018-08-23T01:09:04.610Z,26.85
2018-08-23T01:10:08.081Z,26.84
2018-08-23T01:11:11.470Z,26.85
2018-08-23T01:12:14.902Z,26.85
2018-08-23T01:13:18.304Z,26.85
2018-08-23T01:14:21.720Z,26.86
2018-08-23T01:15:25.124Z,26.86
2018-08-23T01:16:28.535Z,26.86
2018-08-23T01:17:31.947Z,26.86
2018-08-23T01:18:35.355Z,26.87
2018-08-23T01:19:44.068Z,26.87
2018-08-23T01:20:48.585Z,26.87
2018-08-23T01:21:56.111Z,26.87
2018-08-23T01:23:01.225Z,26.88
2018-08-23T01:24:04.713Z,26.87
2018-08-23T01:25:08.143Z,26.87
2018-08-23T01:26:11.623Z,26.88
2018-08-23T01:27:51.389Z,26.87
2018-08-23T01:28:54.813Z,26.86
2018-08-23T01:29:58.191Z,26.86
2018-08-23T01:31:17.151Z,26.87
2018-08-23T01:32:35.131Z,26.86
2018-08-23T01:33:38.507Z,26.86
2018-08-23T01:34:41.895Z,26.86
2018-08-23T01:35:46.316Z,26.86
2018-08-23T01:36:49.685Z,26.86
2018-08-23T01:37:53.192Z,26.87
2018-08-23T01:38:56.626Z,26.87
2018-08-23T01:40:00.274Z,26.86
2018-08-23T01:41:08.980Z,26.85
2018-08-23T01:42:12.463Z,26.86
2018-08-23T01:43:15.875Z,26.86
2018-08-23T01:44:19.395Z,26.86
2018-08-23T01:45:22.759Z,26.86
2018-08-23T01:46:31.431Z,26.85
2018-08-23T01:47:41.633Z,26.86
2018-08-23T01:48:49.459Z,26.85
2018-08-23T01:49:52.834Z,26.85
2018-08-23T01:50:56.231Z,26.84
2018-08-23T01:51:59.640Z,26.85
2018-08-23T01:53:03.031Z,26.84
2018-08-23T01:54:06.487Z,26.84
2018-08-23T01:55:10.457Z,26.85
2018-08-23T01:56:13.859Z,26.83
2018-08-23T01:57:21.456Z,26.83
2018-08-23T01:58:24.914Z,26.83
2018-08-23T01:59:28.326Z,26.83
2018-08-23T02:00:32.989Z,26.83
2018-08-23T02:01:36.411Z,26.82
2018-08-23T02:02:39.870Z,26.84
2018-08-23T02:03:43.744Z,26.83
2018-08-23T02:04:47.947Z,26.83
2018-08-23T02:05:51.338Z,26.82
2018-08-23T02:06:54.757Z,26.83
2018-08-23T02:07:58.245Z,26.82
2018-08-23T02:09:01.635Z,26.82
2018-08-23T02:10:05.683Z,26.82
2018-08-23T02:11:09.126Z,26.82
2018-08-23T02:12:12.498Z,26.83
2018-08-23T02:13:24.186Z,26.83
2018-08-23T02:14:28.631Z,26.82
2018-08-23T02:15:36.349Z,26.83
2018-08-23T02:16:50.898Z,26.83
2018-08-23T02:17:56.526Z,26.83
2018-08-23T02:18:59.956Z,26.82
2018-08-23T02:20:03.452Z,26.81
2018-08-23T02:21:09.463Z,26.81
2018-08-23T02:22:13.143Z,26.82
2018-08-23T02:23:16.530Z,26.82
2018-08-23T02:24:24.079Z,26.81
2018-08-23T02:25:27.490Z,26.82
2018-08-23T02:26:30.922Z,26.83
2018-08-23T02:27:34.486Z,26.82
2018-08-23T02:28:37.858Z,26.82
2018-08-23T02:29:42.674Z,26.83
2018-08-23T02:30:56.832Z,26.82
2018-08-23T02:32:00.244Z,26.83
2018-08-23T02:33:03.778Z,26.82
2018-08-23T02:34:07.344Z,26.83
2018-08-23T02:35:10.751Z,26.82
2018-08-23T02:36:17.508Z,26.82
2018-08-23T02:37:21.626Z,26.82
2018-08-23T02:38:25.763Z,26.83
2018-08-23T02:39:29.167Z,26.84
2018-08-23T02:40:34.824Z,26.83
2018-08-23T02:41:38.355Z,26.83
2018-08-23T02:42:41.764Z,26.82
2018-08-23T02:43:45.707Z,26.83
2018-08-23T02:44:49.155Z,26.83
2018-08-23T02:45:53.503Z,26.82
2018-08-23T02:46:56.934Z,26.83
2018-08-23T02:48:01.020Z,26.82
2018-08-23T02:49:04.477Z,26.82
2018-08-23T02:50:07.920Z,26.82
2018-08-23T02:51:11.394Z,26.82
2018-08-23T02:52:14.832Z,26.82
2018-08-23T02:53:33.480Z,26.81
2018-08-23T02:54:36.930Z,26.81
2018-08-23T02:55:44.620Z,26.81
2018-08-23T02:56:52.621Z,26.82
2018-08-23T02:58:00.158Z,26.82
2018-08-23T02:59:06.585Z,26.82
2018-08-23T03:00:10.042Z,26.82
2018-08-23T03:01:13.472Z,26.83
2018-08-23T03:02:17.117Z,26.82
2018-08-23T03:03:20.614Z,26.84
2018-08-23T03:04:25.058Z,26.83
2018-08-23T03:05:28.508Z,26.83
2018-08-23T03:06:37.326Z,26.83
2018-08-23T03:07:40.815Z,26.83
2018-08-23T03:08:44.544Z,26.83
2018-08-23T03:09:47.922Z,26.82
2018-08-23T03:10:51.352Z,26.83
2018-08-23T03:11:55.951Z,26.82
2018-08-23T03:12:59.347Z,26.82
2018-08-23T03:14:02.791Z,26.82
2018-08-23T03:15:07.213Z,26.82
2018-08-23T03:16:10.598Z,26.82
2018-08-23T03:17:23.666Z,26.81
2018-08-23T03:18:27.054Z,26.82
2018-08-23T03:19:30.443Z,26.83
2018-08-23T03:20:34.326Z,26.83
2018-08-23T03:21:37.791Z,26.81
2018-08-23T03:22:41.754Z,26.82
2018-08-23T03:23:45.909Z,26.82
2018-08-23T03:24:49.284Z,26.81
2018-08-23T03:25:52.766Z,26.82
2018-08-23T03:26:56.124Z,26.82
2018-08-23T03:27:59.510Z,26.82
2018-08-23T03:29:03.408Z,26.82
2018-08-23T03:30:09.072Z,26.82
2018-08-23T03:31:12.531Z,26.82
2018-08-23T03:32:15.898Z,26.82
2018-08-23T03:33:19.344Z,26.82
2018-08-23T03:34:22.768Z,26.82
2018-08-23T03:35:26.243Z,26.83
2018-08-23T03:36:29.608Z,26.82
2018-08-23T03:37:33.015Z,26.81
2018-08-23T03:38:36.432Z,26.82
2018-08-23T03:39:39.843Z,26.82
2018-08-23T03:40:43.227Z,26.82
2018-08-23T03:41:46.598Z,26.81
2018-08-23T03:42:50.021Z,26.81
2018-08-23T03:43:53.519Z,26.81
2018-08-23T03:44:57.777Z,26.81
2018-08-23T03:46:01.124Z,26.81
2018-08-23T03:47:04.545Z,26.82
2018-08-23T03:48:07.936Z,26.81
2018-08-23T03:49:11.353Z,26.81
2018-08-23T03:50:14.733Z,26.81
2018-08-23T03:51:18.124Z,26.81
2018-08-23T03:52:22.972Z,26.80
2018-08-23T03:53:48.482Z,26.80
2018-08-23T03:54:55.474Z,26.81
2018-08-23T03:56:07.612Z,26.79
2018-08-23T03:57:16.363Z,26.78
2018-08-23T03:58:19.756Z,26.79
2018-08-23T03:59:23.205Z,26.79
2018-08-23T04:00:31.884Z,26.77
2018-08-23T04:01:35.308Z,26.77
2018-08-23T04:02:38.751Z,26.75
2018-08-23T04:03:42.288Z,26.74
2018-08-23T04:04:47.394Z,26.73
2018-08-23T04:05:50.835Z,26.73
2018-08-23T04:06:54.306Z,26.72
2018-08-23T04:07:57.709Z,26.71
2018-08-23T04:09:01.119Z,26.71
2018-08-23T04:10:04.719Z,26.71
2018-08-23T04:11:08.118Z,26.70
2018-08-23T04:12:11.504Z,26.69
2018-08-23T04:13:15.007Z,26.69
2018-08-23T04:14:18.411Z,26.69
2018-08-23T04:15:33.049Z,26.69
2018-08-23T04:16:36.336Z,26.68
2018-08-23T04:17:39.902Z,26.68
2018-08-23T04:18:43.310Z,26.67
2018-08-23T04:19:48.492Z,26.67
2018-08-23T04:20:54.357Z,26.66
2018-08-23T04:21:57.891Z,26.66
2018-08-23T04:23:01.313Z,26.66
2018-08-23T04:24:05.052Z,26.66
2018-08-23T04:25:08.452Z,26.65
2018-08-23T04:26:11.937Z,26.66
2018-08-23T04:27:15.340Z,26.67
2018-08-23T04:28:18.729Z,26.68
2018-08-23T04:29:33.517Z,26.68
2018-08-23T04:30:36.936Z,26.68
2018-08-23T04:31:40.325Z,26.68
2018-08-23T04:32:45.747Z,26.68
2018-08-23T04:33:49.140Z,26.68
2018-08-23T04:34:52.561Z,26.69
2018-08-23T04:35:55.952Z,26.68
2018-08-23T04:36:59.368Z,26.68
2018-08-23T04:38:03.028Z,26.69
2018-08-23T04:39:10.454Z,26.69
2018-08-23T04:40:13.897Z,26.68
2018-08-23T04:41:17.296Z,26.68
2018-08-23T04:42:20.710Z,26.67
2018-08-23T04:43:24.109Z,26.66
2018-08-23T04:44:27.805Z,26.66
2018-08-23T04:45:33.570Z,26.65
2018-08-23T04:46:36.982Z,26.61
2018-08-23T04:47:47.837Z,26.57
2018-08-23T04:48:51.489Z,26.54
2018-08-23T04:49:55.084Z,26.51
2018-08-23T04:50:58.472Z,26.48
2018-08-23T04:52:02.048Z,26.45
2018-08-23T04:53:05.639Z,26.42
2018-08-23T04:54:09.104Z,26.39
2018-08-23T04:55:12.464Z,26.36
2018-08-23T04:56:15.854Z,26.32
2018-08-23T04:57:19.622Z,26.30
2018-08-23T04:58:23.061Z,26.26
2018-08-23T04:59:26.456Z,26.22
2018-08-23T05:00:30.505Z,26.21
2018-08-23T05:01:33.913Z,26.15
2018-08-23T05:02:37.365Z,26.15
2018-08-23T05:03:40.791Z,26.12
2018-08-23T05:04:44.177Z,26.11
2018-08-23T05:05:47.563Z,26.10
2018-08-23T05:06:50.983Z,26.08
2018-08-23T05:07:54.408Z,26.07
2018-08-23T05:08:57.930Z,26.08
2018-08-23T05:10:01.425Z,26.07
2018-08-23T05:11:04.753Z,26.06
2018-08-23T05:12:08.199Z,26.06
2018-08-23T05:13:11.733Z,26.02
2018-08-23T05:14:15.120Z,25.93
2018-08-23T05:15:18.539Z,25.84
2018-08-23T05:16:21.980Z,25.79
2018-08-23T05:17:25.882Z,25.70
2018-08-23T05:18:29.281Z,25.62
2018-08-23T05:19:32.680Z,25.62
2018-08-23T05:20:36.206Z,25.61
2018-08-23T05:21:39.608Z,25.58
2018-08-23T05:23:16.298Z,25.58
2018-08-23T05:24:21.697Z,25.52
2018-08-23T05:25:25.828Z,25.50
2018-08-23T05:26:29.294Z,25.47
2018-08-23T05:27:33.440Z,25.48
2018-08-23T05:28:38.452Z,25.47
2018-08-23T05:29:42.913Z,25.49
2018-08-23T05:30:47.889Z,25.47
2018-08-23T05:31:51.347Z,25.42
2018-08-23T05:32:55.957Z,25.37
2018-08-23T05:34:02.708Z,25.36
2018-08-23T05:35:06.120Z,25.38
2018-08-23T05:36:13.638Z,25.39
2018-08-23T05:37:17.065Z,25.41
2018-08-23T05:38:20.798Z,25.43
2018-08-23T05:39:33.959Z,25.44
2018-08-23T05:40:43.022Z,25.43
2018-08-23T05:41:46.518Z,25.41
2018-08-23T05:42:54.421Z,25.41
2018-08-23T05:44:12.464Z,25.39
2018-08-23T05:45:15.841Z,25.37
2018-08-23T05:46:19.252Z,25.36
2018-08-23T05:47:22.943Z,25.33
2018-08-23T05:48:32.470Z,25.32
2018-08-23T05:49:35.841Z,25.23
2018-08-23T05:50:39.315Z,25.21
2018-08-23T05:51:43.863Z,25.21
2018-08-23T05:52:47.328Z,25.20
2018-08-23T05:53:53.149Z,25.22
2018-08-23T05:54:57.373Z,25.24
2018-08-23T05:56:01.696Z,25.24
2018-08-23T05:57:05.182Z,25.26
2018-08-23T05:58:19.670Z,25.28
2018-08-23T05:59:24.481Z,25.31
2018-08-23T06:00:28.169Z,25.32
2018-08-23T06:01:31.575Z,25.33
2018-08-23T06:02:35.061Z,25.31
2018-08-23T06:03:38.806Z,25.25
2018-08-23T06:04:43.366Z,25.21
2018-08-23T06:05:48.061Z,25.19
2018-08-23T06:06:51.533Z,25.21
2018-08-23T06:07:54.997Z,25.19
2018-08-23T06:09:00.845Z,25.16
2018-08-23T06:10:04.376Z,25.17
2018-08-23T06:11:11.189Z,25.17
2018-08-23T06:12:14.618Z,25.19
2018-08-23T06:13:18.596Z,25.17
2018-08-23T06:14:22.023Z,25.16
2018-08-23T06:15:25.759Z,25.15
2018-08-23T06:16:29.216Z,25.16
2018-08-23T06:17:32.654Z,25.17
2018-08-23T06:18:36.191Z,25.18
2018-08-23T06:19:39.644Z,25.16
2018-08-23T06:20:43.070Z,25.16
2018-08-23T06:21:46.505Z,25.16
2018-08-23T06:22:49.891Z,25.17
2018-08-23T06:23:54.101Z,25.16
2018-08-23T06:24:57.515Z,25.16
2018-08-23T06:26:01.125Z,25.18
2018-08-23T06:27:04.612Z,25.16
2018-08-23T06:28:20.807Z,25.14
2018-08-23T06:29:33.768Z,25.13
2018-08-23T06:30:37.275Z,25.13
2018-08-23T06:31:51.724Z,25.13
2018-08-23T06:32:59.343Z,25.12
2018-08-23T06:34:02.847Z,25.11
2018-08-23T06:35:06.282Z,25.12
2018-08-23T06:36:10.582Z,25.11
2018-08-23T06:37:14.402Z,25.10
2018-08-23T06:38:17.763Z,25.07
2018-08-23T06:39:21.165Z,25.08
2018-08-23T06:40:24.609Z,25.09
2018-08-23T06:41:28.859Z,25.08
2018-08-23T06:42:45.184Z,25.10
2018-08-23T06:43:49.045Z,25.12
2018-08-23T06:44:53.392Z,25.13
2018-08-23T06:45:56.905Z,25.13
2018-08-23T06:47:00.348Z,25.11
2018-08-23T06:48:03.989Z,25.14
2018-08-23T06:49:07.459Z,25.14
2018-08-23T06:50:10.937Z,25.16
2018-08-23T06:51:14.415Z,25.16
2018-08-23T06:52:50.063Z,25.16
2018-08-23T06:53:55.387Z,25.17
2018-08-23T06:54:58.798Z,25.18
2018-08-23T06:56:02.259Z,25.19
2018-08-23T06:57:05.697Z,25.18
2018-08-23T06:58:09.149Z,25.16
2018-08-23T06:59:12.593Z,25.17
2018-08-23T07:00:21.249Z,25.17
2018-08-23T07:01:35.299Z,25.19
2018-08-23T07:02:44.135Z,25.20
2018-08-23T07:03:56.778Z,25.21
2018-08-23T07:05:00.217Z,25.23
2018-08-23T07:06:03.699Z,25.22
2018-08-23T07:07:11.247Z,25.21
2018-08-23T07:08:14.726Z,25.23
2018-08-23T07:09:18.970Z,25.22
2018-08-23T07:10:22.838Z,25.22
2018-08-23T07:11:26.905Z,25.22
2018-08-23T07:12:30.349Z,25.24
2018-08-23T07:13:33.759Z,25.23
2018-08-23T07:14:37.496Z,25.22
2018-08-23T07:15:45.434Z,25.21
2018-08-23T07:16:50.213Z,25.20
2018-08-23T07:17:53.675Z,25.23
2018-08-23T07:18:57.293Z,25.24
2018-08-23T07:20:02.812Z,25.23
2018-08-23T07:21:06.374Z,25.26
2018-08-23T07:22:09.872Z,25.31
2018-08-23T07:23:24.765Z,25.32
2018-08-23T07:24:39.593Z,25.35
2018-08-23T07:25:44.912Z,25.35
2018-08-23T07:26:48.405Z,25.38
2018-08-23T07:27:51.847Z,25.39
2018-08-23T07:28:55.321Z,25.40
2018-08-23T07:29:59.587Z,25.41
2018-08-23T07:31:02.997Z,25.42
2018-08-23T07:32:07.622Z,25.44
2018-08-23T07:33:11.036Z,25.46
2018-08-23T07:34:14.412Z,25.48
2018-08-23T07:35:18.825Z,25.50
2018-08-23T07:36:31.203Z,25.51
2018-08-23T07:37:35.895Z,25.52
2018-08-23T07:38:39.326Z,25.54
2018-08-23T07:39:47.013Z,25.56
2018-08-23T07:40:50.507Z,25.57
2018-08-23T07:41:53.970Z,25.58
2018-08-23T07:42:57.515Z,25.59
2018-08-23T07:44:00.872Z,25.60
2018-08-23T07:45:04.713Z,25.61
2018-08-23T07:46:08.368Z,25.63
2018-08-23T07:47:11.791Z,25.62
2018-08-23T07:48:15.198Z,25.64
2018-08-23T07:49:18.586Z,25.64
2018-08-23T07:50:22.065Z,25.65
2018-08-23T07:51:26.330Z,25.66
2018-08-23T07:52:31.192Z,25.66
2018-08-23T07:53:34.616Z,25.67
2018-08-23T07:54:38.044Z,25.68
2018-08-23T07:55:41.495Z,25.70
2018-08-23T07:56:44.966Z,25.70
2018-08-23T07:57:48.408Z,25.71
2018-08-23T07:58:54.991Z,25.71
2018-08-23T07:59:59.661Z,25.71
2018-08-23T08:01:03.168Z,25.70
2018-08-23T08:02:11.645Z,25.70
2018-08-23T08:03:15.758Z,25.71
2018-08-23T08:04:19.272Z,25.71
2018-08-23T08:05:24.705Z,25.71
2018-08-23T08:06:28.851Z,25.72
2018-08-23T08:07:32.733Z,25.72
2018-08-23T08:08:36.235Z,25.71
2018-08-23T08:09:39.683Z,25.72
2018-08-23T08:10:45.279Z,25.73
2018-08-23T08:11:53.934Z,25.72
2018-08-23T08:12:57.603Z,25.72
2018-08-23T08:14:14.318Z,25.74
2018-08-23T08:15:18.279Z,25.73
2018-08-23T08:16:22.393Z,25.74
2018-08-23T08:17:25.955Z,25.73
2018-08-23T08:18:29.380Z,25.73
2018-08-23T08:19:37.421Z,25.75
2018-08-23T08:20:40.878Z,25.75
2018-08-23T08:21:44.339Z,25.76
2018-08-23T08:22:47.762Z,25.77
2018-08-23T08:23:57.806Z,25.78
2018-08-23T08:25:10.566Z,25.77
2018-08-23T08:26:14.084Z,25.82
2018-08-23T08:27:17.635Z,25.80
2018-08-23T08:28:21.083Z,25.81
2018-08-23T08:29:29.623Z,25.80
2018-08-23T08:30:40.805Z,25.80
2018-08-23T08:31:44.190Z,25.79
2018-08-23T08:32:47.630Z,25.79
2018-08-23T08:33:51.120Z,25.78
2018-08-23T08:34:57.797Z,25.78
2018-08-23T08:36:02.766Z,25.77
2018-08-23T08:37:06.220Z,25.77
2018-08-23T08:38:09.656Z,25.77
2018-08-23T08:39:13.131Z,25.78
2018-08-23T08:40:21.816Z,25.76
2018-08-23T08:41:25.248Z,25.75
2018-08-23T08:42:31.413Z,25.76
2018-08-23T08:43:34.893Z,25.76
2018-08-23T08:44:38.323Z,25.77
2018-08-23T08:45:41.740Z,25.76
2018-08-23T08:46:45.152Z,25.77
2018-08-23T08:47:48.785Z,25.76
2018-08-23T08:48:52.208Z,25.76
2018-08-23T08:49:55.840Z,25.76
2018-08-23T08:51:15.777Z,25.77
2018-08-23T08:52:19.193Z,25.76
2018-08-23T08:53:22.609Z,25.77
2018-08-23T08:54:26.032Z,25.75
2018-08-23T08:55:29.440Z,25.76
2018-08-23T08:56:48.454Z,25.76
2018-08-23T08:57:51.927Z,25.75
2018-08-23T08:58:55.324Z,25.76
2018-08-23T08:59:58.764Z,25.77
2018-08-23T09:01:02.175Z,25.76
2018-08-23T09:02:05.738Z,25.75
2018-08-23T09:03:09.148Z,25.75
2018-08-23T09:04:16.696Z,25.76
2018-08-23T09:05:20.054Z,25.76
2018-08-23T09:06:27.768Z,25.75
2018-08-23T09:07:32.334Z,25.76
2018-08-23T09:08:36.856Z,25.76
2018-08-23T09:09:42.005Z,25.76
2018-08-23T09:10:45.473Z,25.76
2018-08-23T09:11:48.920Z,25.76
2018-08-23T09:12:52.382Z,25.76
2018-08-23T09:13:55.885Z,25.77
2018-08-23T09:14:59.838Z,25.77
2018-08-23T09:16:08.503Z,25.76
2018-08-23T09:17:28.575Z,25.77
2018-08-23T09:18:31.961Z,25.77
2018-08-23T09:19:46.608Z,25.78
2018-08-23T09:20:52.931Z,25.77
2018-08-23T09:22:05.369Z,25.77
2018-08-23T09:23:08.807Z,25.77
2018-08-23T09:24:25.212Z,25.77
2018-08-23T09:25:43.339Z,25.77
2018-08-23T09:26:46.792Z,25.77
2018-08-23T09:27:50.887Z,25.78
2018-08-23T09:28:54.291Z,25.77
2018-08-23T09:29:57.780Z,25.78
2018-08-23T09:31:01.195Z,25.77
2018-08-23T09:32:28.425Z,25.78
2018-08-23T09:33:31.814Z,25.78
2018-08-23T09:34:35.271Z,25.79
2018-08-23T09:35:38.864Z,25.77
2018-08-23T09:36:42.281Z,25.78
2018-08-23T09:37:47.043Z,25.78
2018-08-23T09:38:50.468Z,25.79
2018-08-23T09:39:53.900Z,25.78
2018-08-23T09:40:57.305Z,25.78
2018-08-23T09:42:00.713Z,25.78
2018-08-23T09:43:04.492Z,25.79
2018-08-23T09:44:07.871Z,25.80
2018-08-23T09:45:15.075Z,25.79
2018-08-23T09:46:18.493Z,25.79
2018-08-23T09:47:21.956Z,25.79
2018-08-23T09:48:25.375Z,25.79
2018-08-23T09:49:28.776Z,25.80
2018-08-23T09:50:32.336Z,25.80
2018-08-23T09:51:36.000Z,25.79
2018-08-23T09:52:45.191Z,25.80
2018-08-23T09:53:48.597Z,25.80
2018-08-23T09:54:52.037Z,25.80
2018-08-23T09:55:56.686Z,25.80
2018-08-23T09:57:00.097Z,25.80
2018-08-23T09:58:03.529Z,25.80
2018-08-23T09:59:08.127Z,25.81
2018-08-23T10:00:13.248Z,25.81
2018-08-23T10:01:22.085Z,25.81
2018-08-23T10:02:30.689Z,25.80
2018-08-23T10:04:39.334Z,25.80
2018-08-23T10:05:48.096Z,25.81
2018-08-23T10:07:01.555Z,25.81
2018-08-23T10:08:10.563Z,25.81
2018-08-23T10:09:19.217Z,25.81
2018-08-23T10:10:27.978Z,25.81
2018-08-23T10:11:36.950Z,25.81
2018-08-23T10:12:45.703Z,25.81
2018-08-23T10:13:54.327Z,25.82
2018-08-23T10:15:03.471Z,25.81
2018-08-23T10:16:12.234Z,25.82
2018-08-23T10:17:20.787Z,25.81
2018-08-23T10:18:29.406Z,25.81
2018-08-23T10:19:38.182Z,25.81
2018-08-23T10:20:46.959Z,25.81
2018-08-23T10:21:55.517Z,25.81
2018-08-23T10:23:04.245Z,25.81
2018-08-23T10:24:15.390Z,25.81
2018-08-23T10:25:32.312Z,25.83
2018-08-23T10:26:35.878Z,25.83
2018-08-23T10:27:39.304Z,25.82
2018-08-23T10:28:48.063Z,25.82
2018-08-23T10:29:51.525Z,25.83
2018-08-23T10:30:55.718Z,25.82
2018-08-23T10:31:59.439Z,25.83
2018-08-23T10:33:02.855Z,25.83
2018-08-23T10:34:06.475Z,25.83
2018-08-23T10:35:09.889Z,25.83
2018-08-23T10:36:13.600Z,25.83
2018-08-23T10:37:17.056Z,25.84
2018-08-23T10:38:22.173Z,25.83
2018-08-23T10:39:25.532Z,25.83
2018-08-23T10:40:28.947Z,25.84
2018-08-23T10:41:32.463Z,25.83
2018-08-23T10:42:35.873Z,25.85
2018-08-23T10:43:46.325Z,25.84
2018-08-23T10:44:49.744Z,25.85
2018-08-23T10:45:53.418Z,25.84
2018-08-23T10:46:57.767Z,25.84
2018-08-23T10:48:06.568Z,25.84
2018-08-23T10:49:10.031Z,25.85
2018-08-23T10:50:13.459Z,25.85
2018-08-23T10:51:16.916Z,25.85
2018-08-23T10:52:20.367Z,25.85
2018-08-23T10:53:23.813Z,25.86
2018-08-23T10:54:27.261Z,25.86
2018-08-23T10:55:30.747Z,25.86
2018-08-23T10:56:34.139Z,25.86
2018-08-23T10:57:37.588Z,25.86
2018-08-23T10:58:40.971Z,25.87
2018-08-23T10:59:44.388Z,25.85
2018-08-23T11:00:47.801Z,25.86
2018-08-23T11:01:51.584Z,25.87
2018-08-23T11:02:55.142Z,25.87
2018-08-23T11:04:03.903Z,25.87
2018-08-23T11:05:07.358Z,25.88
2018-08-23T11:06:10.773Z,25.88
2018-08-23T11:07:14.231Z,25.86
2018-08-23T11:08:21.581Z,25.87
2018-08-23T11:09:30.507Z,25.88
2018-08-23T11:10:39.193Z,25.88
2018-08-23T11:11:42.608Z,25.88
2018-08-23T11:13:49.807Z,25.89
2018-08-23T11:14:53.351Z,25.88
2018-08-23T11:16:01.991Z,25.89
2018-08-23T11:17:10.638Z,25.88
2018-08-23T11:18:19.334Z,25.88
2018-08-23T11:19:28.055Z,25.88
2018-08-23T11:20:35.651Z,25.88
2018-08-23T11:21:39.096Z,25.88
2018-08-23T11:22:42.524Z,25.88
2018-08-23T11:23:46.668Z,25.89
2018-08-23T11:24:50.066Z,25.88
2018-08-23T11:25:53.575Z,25.89
2018-08-23T11:26:57.040Z,25.89
2018-08-23T11:28:04.627Z,25.89
2018-08-23T11:29:08.023Z,25.89
2018-08-23T11:30:11.447Z,25.89
2018-08-23T11:31:20.245Z,25.89
2018-08-23T11:32:23.672Z,25.90
2018-08-23T11:33:27.140Z,25.90
2018-08-23T11:34:30.581Z,25.90
2018-08-23T11:35:34.005Z,25.89
2018-08-23T11:36:37.455Z,25.91
2018-08-23T11:37:41.016Z,25.90
2018-08-23T11:38:44.408Z,25.92
2018-08-23T11:39:47.851Z,25.95
2018-08-23T11:40:52.004Z,25.95
2018-08-23T11:41:55.426Z,25.96
2018-08-23T11:42:58.905Z,25.96
2018-08-23T11:44:02.339Z,25.97
2018-08-23T11:45:06.086Z,25.98
2018-08-23T11:46:14.880Z,25.98
2018-08-23T11:47:18.281Z,25.99
2018-08-23T11:48:21.761Z,25.98
2018-08-23T11:49:25.396Z,25.99
2018-08-23T11:50:28.907Z,25.99
2018-08-23T11:51:32.337Z,26.00
2018-08-23T11:52:35.744Z,26.01
2018-08-23T11:53:39.333Z,26.01
2018-08-23T11:54:42.683Z,26.01
2018-08-23T11:55:46.126Z,26.01
2018-08-23T11:56:49.542Z,26.02
2018-08-23T11:57:53.027Z,26.02
2018-08-23T11:58:56.491Z,26.02
2018-08-23T11:59:59.887Z,26.03
2018-08-23T12:01:08.592Z,26.03
2018-08-23T12:02:12.037Z,26.05
2018-08-23T12:03:15.468Z,26.04
2018-08-23T12:04:18.865Z,26.06
2018-08-23T12:05:22.281Z,26.06
2018-08-23T12:06:25.833Z,26.06
2018-08-23T12:07:29.747Z,26.07
2018-08-23T12:08:33.182Z,26.07
2018-08-23T12:09:36.574Z,26.08
2018-08-23T12:10:40.021Z,26.09
2018-08-23T12:11:43.418Z,26.08
2018-08-23T12:12:47.980Z,26.09
2018-08-23T12:13:51.906Z,26.10
2018-08-23T12:14:55.575Z,26.10
2018-08-23T12:15:59.066Z,26.10
2018-08-23T12:17:02.571Z,26.10
2018-08-23T12:18:06.429Z,26.10
2018-08-23T12:19:09.865Z,26.10
2018-08-23T12:20:13.303Z,26.11
2018-08-23T12:21:16.699Z,26.11
2018-08-23T12:22:24.309Z,26.10
2018-08-23T12:23:27.816Z,26.10
2018-08-23T12:24:31.242Z,26.11
2018-08-23T12:25:34.698Z,26.12
2018-08-23T12:26:38.072Z,26.11
2018-08-23T12:27:42.396Z,26.11
2018-08-23T12:28:51.036Z,26.11
2018-08-23T12:29:54.457Z,26.12
2018-08-23T12:30:57.879Z,26.13
2018-08-23T12:32:01.345Z,26.12
2018-08-23T12:33:04.828Z,26.13
2018-08-23T12:34:09.624Z,26.13
2018-08-23T12:35:13.338Z,26.13
2018-08-23T12:36:20.904Z,26.13
2018-08-23T12:37:29.658Z,26.14
2018-08-23T12:38:38.431Z,26.14
2018-08-23T12:39:47.076Z,26.13
2018-08-23T12:40:55.913Z,26.14
2018-08-23T12:42:04.671Z,26.14
2018-08-23T12:43:10.590Z,26.14
2018-08-23T12:44:14.060Z,26.15
2018-08-23T12:45:17.507Z,26.15
2018-08-23T12:46:20.964Z,26.14
2018-08-23T12:47:24.369Z,26.14
2018-08-23T12:48:28.506Z,26.14
2018-08-23T12:49:32.158Z,26.15
2018-08-23T12:50:35.561Z,26.16
2018-08-23T12:51:39.015Z,26.15
2018-08-23T12:52:42.465Z,26.16
2018-08-23T12:53:45.892Z,26.15
2018-08-23T12:54:49.336Z,26.16
2018-08-23T12:55:52.778Z,26.15
2018-08-23T12:56:56.174Z,26.16
2018-08-23T12:57:59.623Z,26.16
2018-08-23T12:59:03.113Z,26.16
2018-08-23T13:00:06.769Z,26.16
2018-08-23T13:01:10.233Z,26.17
2018-08-23T13:02:13.723Z,26.16
2018-08-23T13:03:17.080Z,26.18
2018-08-23T13:04:20.696Z,26.16
2018-08-23T13:05:24.319Z,26.16
2018-08-23T13:06:27.757Z,26.16
2018-08-23T13:07:31.149Z,26.18
2018-08-23T13:08:34.630Z,26.17
2018-08-23T13:09:38.704Z,26.18
2018-08-23T13:10:42.144Z,26.18
2018-08-23T13:11:45.553Z,26.18
2018-08-23T13:12:49.272Z,26.19
2018-08-23T13:13:52.821Z,26.20
2018-08-23T13:14:56.557Z,26.20
2018-08-23T13:16:00.022Z,26.21
2018-08-23T13:17:03.503Z,26.22
2018-08-23T13:18:07.057Z,26.21
2018-08-23T13:19:10.483Z,26.21
2018-08-23T13:20:13.912Z,26.22
2018-08-23T13:21:17.391Z,26.22
2018-08-23T13:22:26.097Z,26.23
2018-08-23T13:23:29.493Z,26.22
2018-08-23T13:24:33.488Z,26.22
2018-08-23T13:25:41.154Z,26.23
2018-08-23T13:26:45.996Z,26.25
2018-08-23T13:27:49.462Z,26.24
2018-08-23T13:28:52.917Z,26.24
2018-08-23T13:29:56.394Z,26.25
2018-08-23T13:30:59.804Z,26.25
2018-08-23T13:32:03.412Z,26.24
2018-08-23T13:33:06.494Z,26.25
2018-08-23T13:34:09.945Z,26.25
2018-08-23T13:35:13.435Z,26.25
2018-08-23T13:36:16.957Z,26.25
2018-08-23T13:37:20.338Z,26.26
2018-08-23T13:38:23.830Z,26.28
2018-08-23T13:39:27.252Z,26.28
2018-08-23T13:40:30.694Z,26.27
2018-08-23T13:41:34.070Z,26.27
2018-08-23T13:42:37.551Z,26.27
2018-08-23T13:43:40.968Z,26.26
2018-08-23T13:44:44.421Z,26.26
2018-08-23T13:45:47.830Z,26.27
2018-08-23T13:46:51.290Z,26.26
2018-08-23T13:47:54.792Z,26.26
2018-08-23T13:48:58.208Z,26.28
2018-08-23T13:50:01.694Z,26.27
2018-08-23T13:51:05.152Z,26.27
2018-08-23T13:52:08.711Z,26.27
2018-08-23T13:53:12.169Z,26.27
2018-08-23T13:54:15.569Z,26.29
2018-08-23T13:55:19.005Z,26.29
2018-08-23T13:56:23.376Z,26.29
2018-08-23T13:57:27.008Z,26.28
2018-08-23T13:58:30.466Z,26.30
2018-08-23T13:59:33.878Z,26.28